Time;durP1;ratioP1;P1;durP2;ratioP2;P2;SDS_P1;SDS_P2;PMS_P1;PMS_P2;Temp;Humidity;BMP_temperature;BMP_pressure;BME280_temperature;BME280_humidity;BME280_pressure;Samples;Min_cycle;Max_cycle;Signal;HPM_P1;HPM_P2
2021/06/22 00:00:42;;;;;;;11.15;6.28;;;22.70;99.90;;;;;;5129814;27;20269;-75
2021/06/22 00:03:09;;;;;;;8.20;7.53;;;23.00;99.90;;;;;;5129433;27;20209;-75
2021/06/22 00:05:36;;;;;;;11.88;6.90;;;22.80;99.90;;;;;;5129377;27;20699;-73
2021/06/22 00:08:02;;;;;;;7.45;6.78;;;22.60;99.90;;;;;;5129319;27;20209;-76
2021/06/22 00:10:31;;;;;;;8.05;7.25;;;22.60;99.90;;;;;;5129269;27;20728;-76
2021/06/22 00:12:59;;;;;;;8.25;7.05;;;22.60;99.90;;;;;;5129069;27;20229;-76
2021/06/22 00:15:28;;;;;;;7.30;6.72;;;22.60;99.90;;;;;;5129598;27;20246;-76
2021/06/22 00:17:55;;;;;;;7.53;6.28;;;22.60;99.90;;;;;;5129249;28;20737;-77
2021/06/22 00:20:22;;;;;;;7.50;6.45;;;22.80;99.90;;;;;;5129274;27;20701;-77
2021/06/22 00:22:51;;;;;;;7.85;7.07;;;22.90;99.90;;;;;;5129574;28;20212;-76
2021/06/22 00:25:19;;;;;;;6.72;5.95;;;23.10;99.90;;;;;;5129212;27;20725;-80
2021/06/22 00:27:46;;;;;;;8.73;6.93;;;23.30;99.90;;;;;;5129183;27;20605;-76
2021/06/22 00:30:13;;;;;;;7.90;7.18;;;23.10;99.90;;;;;;5129393;28;20659;-76
2021/06/22 00:32:42;;;;;;;8.30;6.72;;;22.80;99.90;;;;;;5129342;27;20208;-76
2021/06/22 00:35:10;;;;;;;8.45;7.43;;;22.70;99.90;;;;;;5129488;28;20213;-76
2021/06/22 00:37:37;;;;;;;10.13;7.93;;;22.60;99.90;;;;;;5129600;28;20201;-76
2021/06/22 00:40:04;;;;;;;8.10;7.47;;;22.80;99.90;;;;;;5129395;27;20209;-75
2021/06/22 00:42:31;;;;;;;9.40;7.60;;;22.60;99.90;;;;;;5129357;28;20262;-76
2021/06/22 00:44:59;;;;;;;8.33;7.50;;;22.50;99.90;;;;;;5129321;28;20212;-76
2021/06/22 00:47:27;;;;;;;8.95;8.23;;;22.60;99.90;;;;;;5129464;28;20205;-76
2021/06/22 00:49:56;;;;;;;8.13;7.00;;;22.50;99.90;;;;;;5129184;28;20205;-76
2021/06/22 00:52:25;;;;;;;8.20;7.53;;;22.70;99.90;;;;;;5129311;28;20212;-76
2021/06/22 00:54:52;;;;;;;8.40;7.60;;;22.60;99.90;;;;;;5128879;28;20286;-76
2021/06/22 00:57:20;;;;;;;8.38;7.68;;;22.70;99.90;;;;;;5129147;28;20667;-76
2021/06/22 00:59:47;;;;;;;10.25;8.32;;;22.70;99.90;;;;;;5129128;27;20859;-76
2021/06/22 01:02:14;;;;;;;10.35;8.38;;;22.50;99.90;;;;;;5129174;27;20264;-75
2021/06/22 01:04:40;;;;;;;9.23;8.33;;;22.50;99.90;;;;;;5129058;27;20669;-76
2021/06/22 01:07:11;;;;;;;10.10;9.10;;;22.50;99.90;;;;;;5130046;27;20209;-76
2021/06/22 01:09:39;;;;;;;10.63;8.60;;;22.20;99.90;;;;;;5133034;27;20548;-76
2021/06/22 01:12:07;;;;;;;9.20;8.33;;;22.30;99.90;;;;;;5133094;27;20201;-76
2021/06/22 01:14:34;;;;;;;10.13;9.10;;;22.20;99.90;;;;;;5123179;27;20792;-76
2021/06/22 01:17:00;;;;;;;10.13;9.10;;;22.10;99.90;;;;;;5112223;28;20223;-76
2021/06/22 01:19:29;;;;;;;12.33;8.93;;;22.10;99.90;;;;;;5112291;28;20229;-76
2021/06/22 01:21:57;;;;;;;12.37;7.47;;;22.30;99.90;;;;;;5112206;28;20230;-76
2021/06/22 01:24:24;;;;;;;8.95;8.00;;;22.60;99.90;;;;;;5112036;28;20259;-76
2021/06/22 01:26:54;;;;;;;9.10;8.23;;;22.70;99.90;;;;;;5111865;28;20210;-77
2021/06/22 01:29:20;;;;;;;8.88;7.90;;;22.80;99.90;;;;;;5111983;28;20244;-77
2021/06/22 01:31:47;;;;;;;9.60;7.68;;;22.90;99.90;;;;;;5112133;28;20274;-76
2021/06/22 01:34:14;;;;;;;10.60;8.40;;;23.10;99.90;;;;;;5112077;28;20238;-76
2021/06/22 01:36:41;;;;;;;8.07;7.35;;;23.10;99.90;;;;;;5112158;28;20202;-76
2021/06/22 01:39:15;;;;;;;7.82;7.13;;;23.10;99.90;;;;;;5111981;28;20207;-76
2021/06/22 01:41:42;;;;;;;9.73;8.07;;;23.20;99.90;;;;;;5112077;28;20190;-77
2021/06/22 01:44:09;;;;;;;8.40;7.60;;;23.20;99.90;;;;;;5111649;28;20616;-75
2021/06/22 01:46:36;;;;;;;12.77;8.23;;;23.20;99.90;;;;;;5111651;28;20259;-75
2021/06/22 01:49:03;;;;;;;8.48;7.20;;;23.10;99.90;;;;;;5111657;28;20291;-75
2021/06/22 01:51:29;;;;;;;8.10;7.43;;;23.10;99.90;;;;;;5111731;28;20233;-75
2021/06/22 01:53:59;;;;;;;8.27;7.28;;;23.10;99.90;;;;;;5110878;28;20687;-76
2021/06/22 01:56:30;;;;;;;8.23;7.15;;;23.00;99.90;;;;;;5111639;28;20202;-77
2021/06/22 01:58:56;;;;;;;8.10;7.38;;;23.10;99.90;;;;;;5111649;28;20293;-76
2021/06/22 02:01:23;;;;;;;8.85;7.10;;;22.90;99.90;;;;;;5111749;27;20206;-77
2021/06/22 02:03:50;;;;;;;8.60;6.13;;;23.00;99.90;;;;;;5110967;27;20672;-75
2021/06/22 02:06:17;;;;;;;6.78;6.25;;;23.00;99.90;;;;;;5111013;28;20647;-75
2021/06/22 02:08:43;;;;;;;7.43;6.65;;;23.20;99.90;;;;;;5111387;28;20229;-75
2021/06/22 02:11:10;;;;;;;8.52;7.05;;;23.10;99.90;;;;;;5110960;28;20247;-76
2021/06/22 02:13:38;;;;;;;7.15;6.47;;;22.90;99.90;;;;;;5111149;28;20229;-76
2021/06/22 02:16:05;;;;;;;6.97;6.43;;;22.70;99.90;;;;;;5110982;28;20746;-76
2021/06/22 02:18:32;;;;;;;6.15;5.57;;;22.80;99.90;;;;;;5110766;28;20275;-76
2021/06/22 02:20:58;;;;;;;5.93;5.43;;;22.90;99.90;;;;;;5111203;28;20205;-76
2021/06/22 02:23:25;;;;;;;6.65;4.95;;;23.00;99.90;;;;;;5111180;28;20569;-76
2021/06/22 02:25:51;;;;;;;7.68;5.45;;;23.10;99.90;;;;;;5110984;28;20206;-76
2021/06/22 02:28:21;;;;;;;7.10;5.82;;;23.20;99.90;;;;;;5111348;28;20206;-76
2021/06/22 02:30:51;;;;;;;7.68;5.85;;;23.20;99.90;;;;;;5111406;28;20245;-76
2021/06/22 02:33:18;;;;;;;6.97;5.38;;;23.20;99.90;;;;;;5110921;28;20213;-76
2021/06/22 02:35:44;;;;;;;5.57;4.63;;;23.30;99.90;;;;;;5110732;28;20961;-76
2021/06/22 02:38:12;;;;;;;6.15;5.55;;;23.40;99.90;;;;;;5110938;28;20244;-76
2021/06/22 02:40:39;;;;;;;6.97;5.20;;;23.50;99.90;;;;;;5110292;28;20259;-75
2021/06/22 02:43:06;;;;;;;5.60;5.10;;;23.50;99.90;;;;;;5110984;28;20213;-76
2021/06/22 02:45:34;;;;;;;6.13;4.93;;;23.40;99.90;;;;;;5110861;28;20640;-76
2021/06/22 02:48:04;;;;;;;5.82;5.20;;;23.40;99.90;;;;;;5110724;28;20263;-76
2021/06/22 02:50:31;;;;;;;5.70;5.20;;;23.40;99.90;;;;;;5110273;28;20206;-73
2021/06/22 02:52:57;;;;;;;7.78;4.95;;;23.40;99.90;;;;;;5109776;28;20617;-73
2021/06/22 02:55:24;;;;;;;6.43;5.82;;;23.40;99.90;;;;;;5110196;28;20234;-74
2021/06/22 02:57:53;;;;;;;6.85;5.55;;;23.40;99.90;;;;;;5110227;28;20255;-74
2021/06/22 03:00:21;;;;;;;10.35;6.43;;;23.40;99.90;;;;;;5109744;28;20634;-74
2021/06/22 03:02:49;;;;;;;11.00;6.80;;;23.20;99.90;;;;;;5109816;28;20235;-76
2021/06/22 03:05:18;;;;;;;8.10;6.72;;;23.20;99.90;;;;;;5120515;27;20689;-74
2021/06/22 03:07:44;;;;;;;10.65;7.13;;;23.30;99.90;;;;;;5118523;27;20605;-74
2021/06/22 03:10:14;;;;;;;9.02;6.20;;;23.40;99.90;;;;;;5129580;27;20273;-78
2021/06/22 03:12:41;;;;;;;6.63;5.93;;;23.30;99.90;;;;;;5129595;27;20608;-77
2021/06/22 03:15:10;;;;;;;8.40;7.28;;;23.00;99.90;;;;;;5108056;28;20275;-77
2021/06/22 03:17:37;;;;;;;6.55;5.50;;;23.00;99.90;;;;;;5107989;28;20313;-76
2021/06/22 03:20:05;;;;;;;7.30;6.68;;;22.90;99.90;;;;;;5107309;28;20209;-76
2021/06/22 03:22:34;;;;;;;11.02;7.18;;;23.10;99.90;;;;;;5115669;27;20243;-76
2021/06/22 03:25:00;;;;;;;12.10;7.72;;;22.80;99.90;;;;;;5106907;28;20194;-76
2021/06/22 03:27:28;;;;;;;15.63;7.93;;;22.40;99.90;;;;;;5107903;28;20302;-76
2021/06/22 03:29:54;;;;;;;11.60;6.70;;;21.80;99.90;;;;;;5106805;28;20209;-76
2021/06/22 03:32:21;;;;;;;14.87;8.30;;;21.80;99.90;;;;;;5107591;28;20667;-77
2021/06/22 03:34:48;;;;;;;10.57;8.03;;;22.00;99.90;;;;;;5107578;28;20298;-76
2021/06/22 03:37:14;;;;;;;9.80;7.13;;;22.20;99.90;;;;;;5106895;28;20713;-76
2021/06/22 03:39:42;;;;;;;16.10;9.17;;;22.10;99.90;;;;;;5107134;28;20210;-77
2021/06/22 03:42:10;;;;;;;14.13;9.73;;;22.20;99.90;;;;;;5107238;28;20213;-76
2021/06/22 03:44:38;;;;;;;18.03;11.33;;;22.00;99.90;;;;;;5107362;28;20210;-76
2021/06/22 03:47:04;;;;;;;20.83;12.27;;;21.90;99.90;;;;;;5107589;28;20202;-76
2021/06/22 03:49:31;;;;;;;23.93;13.10;;;21.60;99.90;;;;;;5107395;28;20241;-76
2021/06/22 03:51:58;;;;;;;24.03;12.67;;;21.50;99.90;;;;;;5106989;28;20218;-77
2021/06/22 03:54:25;;;;;;;19.27;12.80;;;21.50;99.90;;;;;;5106858;28;20273;-76
2021/06/22 03:56:53;;;;;;;17.73;11.50;;;21.60;99.90;;;;;;5107135;28;20206;-77
2021/06/22 03:59:19;;;;;;;18.27;10.77;;;21.70;99.90;;;;;;5112571;27;20201;-77
2021/06/22 04:01:46;;;;;;;19.63;14.40;;;22.00;99.90;;;;;;5121364;27;20216;-76
2021/06/22 04:04:13;;;;;;;25.07;15.80;;;22.00;99.90;;;;;;5117035;27;20209;-75
2021/06/22 04:06:39;;;;;;;26.90;17.27;;;21.50;99.90;;;;;;5128706;27;20225;-75
2021/06/22 04:09:06;;;;;;;24.37;16.30;;;21.10;99.90;;;;;;5128214;27;20201;-76
2021/06/22 04:11:33;;;;;;;25.03;15.60;;;21.10;99.90;;;;;;5128328;27;21011;-76
2021/06/22 04:14:00;;;;;;;33.37;21.17;;;20.90;99.90;;;;;;5128306;27;20205;-76
2021/06/22 04:16:27;;;;;;;32.10;19.83;;;20.50;99.90;;;;;;5128332;27;20198;-75
2021/06/22 04:18:54;;;;;;;31.80;20.03;;;20.60;99.90;;;;;;5128269;27;20225;-75
2021/06/22 04:21:21;;;;;;;40.80;20.63;;;20.70;99.90;;;;;;5128934;27;20197;-76
2021/06/22 04:23:47;;;;;;;33.27;19.63;;;20.60;99.90;;;;;;5128149;27;20229;-76
2021/06/22 04:26:16;;;;;;;31.83;20.83;;;20.50;99.90;;;;;;5128008;28;20197;-76
2021/06/22 04:28:43;;;;;;;33.40;21.20;;;20.70;99.90;;;;;;5128108;27;20197;-76
2021/06/22 04:31:11;;;;;;;29.30;20.37;;;20.30;99.90;;;;;;5132009;27;20200;-76
2021/06/22 04:33:38;;;;;;;28.73;19.70;;;19.90;99.90;;;;;;5142677;27;20246;-76
2021/06/22 04:36:05;;;;;;;33.23;21.23;;;19.80;99.90;;;;;;5139164;27;20248;-75
2021/06/22 04:38:32;;;;;;;32.33;19.47;;;19.70;99.90;;;;;;5138443;27;20253;-77
2021/06/22 04:40:58;;;;;;;30.03;20.07;;;19.60;99.90;;;;;;5132821;27;20202;-78
2021/06/22 04:43:25;;;;;;;29.90;18.77;;;19.80;99.90;;;;;;5132546;27;20215;-75
2021/06/22 04:45:52;;;;;;;25.40;18.23;;;19.50;99.90;;;;;;5119005;27;20210;-76
2021/06/22 04:48:19;;;;;;;26.80;16.80;;;19.30;99.90;;;;;;5126331;27;20231;-76
2021/06/22 04:50:46;;;;;;;21.30;14.67;;;19.40;99.90;;;;;;5130207;27;20289;-76
2021/06/22 04:53:13;;;;;;;22.90;13.70;;;19.30;99.90;;;;;;5132630;27;20239;-76
2021/06/22 04:55:39;;;;;;;19.93;12.70;;;19.50;99.90;;;;;;5132523;27;20593;-75
2021/06/22 04:58:06;;;;;;;18.63;11.70;;;19.60;99.90;;;;;;5129774;27;20197;-75
2021/06/22 05:00:33;;;;;;;17.27;11.50;;;19.30;99.90;;;;;;5132176;27;20255;-75
2021/06/22 05:03:00;;;;;;;14.63;10.90;;;19.40;99.90;;;;;;5131972;27;20735;-75
2021/06/22 05:05:28;;;;;;;14.70;9.73;;;19.40;99.90;;;;;;5129701;27;20260;-76
2021/06/22 05:07:55;;;;;;;10.47;9.17;;;19.20;99.90;;;;;;5132526;27;20279;-76
2021/06/22 05:10:22;;;;;;;12.73;9.53;;;19.30;99.90;;;;;;5132348;27;20250;-75
2021/06/22 05:12:49;;;;;;;8.57;7.83;;;19.30;99.90;;;;;;5132826;27;20250;-75
2021/06/22 05:15:16;;;;;;;8.50;7.57;;;19.30;99.90;;;;;;5132509;27;20226;-75
2021/06/22 05:17:42;;;;;;;10.47;6.63;;;19.40;99.90;;;;;;5131951;27;20330;-75
2021/06/22 05:20:11;;;;;;;7.13;6.43;;;19.50;99.90;;;;;;5117934;27;20255;-76
2021/06/22 05:22:39;;;;;;;6.60;5.90;;;19.30;99.90;;;;;;5111801;28;20739;-76
2021/06/22 05:25:06;;;;;;;6.93;5.33;;;19.60;99.90;;;;;;5111713;28;20255;-78
2021/06/22 05:27:33;;;;;;;6.07;5.57;;;19.70;99.90;;;;;;5111655;28;20201;-79
2021/06/22 05:30:00;;;;;;;7.50;5.27;;;19.70;99.90;;;;;;5111231;28;20212;-79
2021/06/22 05:32:26;;;;;;;5.40;4.97;;;19.90;99.90;;;;;;5111980;28;20206;-78
2021/06/22 05:34:53;;;;;;;12.63;4.87;;;20.00;99.90;;;;;;5111888;28;20312;-75
2021/06/22 05:37:20;;;;;;;6.70;6.10;;;20.30;99.90;;;;;;5111859;28;20198;-76
2021/06/22 05:39:48;;;;;;;7.47;6.10;;;20.40;99.90;;;;;;5125589;27;20224;-78
2021/06/22 05:42:16;;;;;;;7.27;6.00;;;20.40;99.90;;;;;;5132012;27;20201;-77
2021/06/22 05:44:43;;;;;;;6.87;6.23;;;20.30;99.90;;;;;;5132246;27;20205;-77
2021/06/22 05:47:11;;;;;;;5.93;5.43;;;20.20;99.90;;;;;;5132150;27;20284;-77
2021/06/22 05:49:38;;;;;;;6.00;5.47;;;20.30;99.90;;;;;;5132065;27;20776;-77
2021/06/22 05:52:05;;;;;;;6.80;5.43;;;20.50;99.90;;;;;;5131063;27;20270;-77
2021/06/22 05:54:32;;;;;;;7.17;6.30;;;20.70;99.90;;;;;;5131127;27;20197;-77
2021/06/22 05:57:00;;;;;;;5.30;4.90;;;20.70;99.90;;;;;;5131192;27;20788;-78
2021/06/22 05:59:26;;;;;;;5.40;4.97;;;20.50;99.90;;;;;;5130817;27;20219;-77
2021/06/22 06:01:53;;;;;;;8.50;6.27;;;20.60;99.90;;;;;;5131322;27;20208;-77
2021/06/22 06:04:19;;;;;;;6.80;6.03;;;20.60;99.90;;;;;;5129424;27;20242;-77
2021/06/22 06:06:46;;;;;;;7.47;5.70;;;20.80;99.90;;;;;;5130362;27;20182;-78
2021/06/22 06:09:13;;;;;;;6.30;5.70;;;20.70;99.90;;;;;;5130802;27;20270;-77
2021/06/22 06:11:39;;;;;;;7.07;6.37;;;20.90;99.90;;;;;;5130477;27;20194;-78
2021/06/22 06:14:07;;;;;;;9.03;5.33;;;20.70;99.90;;;;;;5131337;27;20193;-77
2021/06/22 06:16:34;;;;;;;7.40;6.13;;;20.70;99.90;;;;;;5129631;27;20687;-77
2021/06/22 06:19:00;;;;;;;5.87;5.10;;;20.60;99.90;;;;;;5122428;27;20247;-78
2021/06/22 06:21:27;;;;;;;5.70;5.27;;;20.80;99.90;;;;;;5130828;27;20725;-78
2021/06/22 06:23:56;;;;;;;8.60;5.73;;;21.00;99.90;;;;;;5131176;27;20246;-77
2021/06/22 06:26:23;;;;;;;7.73;5.30;;;21.10;99.90;;;;;;5130756;27;20254;-78
2021/06/22 06:28:51;;;;;;;16.80;5.93;;;21.30;99.90;;;;;;5130513;27;20659;-78
2021/06/22 06:31:21;;;;;;;7.63;5.57;;;21.30;99.90;;;;;;5130129;27;20289;-77
2021/06/22 06:33:48;;;;;;;66.33;11.23;;;21.40;99.90;;;;;;5130663;27;20224;-77
2021/06/22 06:36:15;;;;;;;9.40;5.63;;;21.40;99.90;;;;;;5129947;27;20262;-78
2021/06/22 06:38:41;;;;;;;9.50;5.20;;;21.30;99.90;;;;;;5130575;27;20197;-78
2021/06/22 06:41:08;;;;;;;70.50;15.13;;;21.10;99.90;;;;;;5130234;27;20352;-78
2021/06/22 06:43:35;;;;;;;17.50;5.43;;;21.00;99.90;;;;;;5126657;27;20243;-76
2021/06/22 06:46:02;;;;;;;5.23;4.83;;;20.70;99.90;;;;;;5127477;27;20197;-76
2021/06/22 06:48:30;;;;;;;7.70;6.13;;;20.40;99.90;;;;;;5129649;27;20231;-76
2021/06/22 06:50:56;;;;;;;9.40;5.77;;;20.00;99.90;;;;;;5128015;27;20198;-76
2021/06/22 06:53:23;;;;;;;6.80;6.20;;;19.80;99.90;;;;;;5130399;27;20566;-76
2021/06/22 06:55:50;;;;;;;6.10;5.60;;;19.90;99.90;;;;;;5130456;27;20737;-75
2021/06/22 06:58:16;;;;;;;8.20;6.57;;;19.80;99.90;;;;;;5130365;27;20678;-76
2021/06/22 07:00:44;;;;;;;6.47;5.70;;;19.90;99.90;;;;;;5124361;27;20202;-76
2021/06/22 07:03:11;;;;;;;6.90;6.30;;;19.80;99.90;;;;;;5130115;27;20291;-76
2021/06/22 07:05:39;;;;;;;8.00;7.20;;;19.50;99.90;;;;;;5129868;27;20237;-76
2021/06/22 07:08:06;;;;;;;6.43;5.90;;;19.60;99.90;;;;;;5129824;27;20617;-76
2021/06/22 07:10:33;;;;;;;6.60;6.00;;;19.60;99.90;;;;;;5130206;27;20258;-76
2021/06/22 07:13:04;;;;;;;5.37;4.87;;;19.70;99.90;;;;;;5130391;27;20206;-76
2021/06/22 07:15:31;;;;;;;5.77;5.13;;;19.90;99.90;;;;;;5129855;27;20233;-76
2021/06/22 07:17:57;;;;;;;6.03;5.43;;;19.90;99.90;;;;;;5130105;27;20226;-75
2021/06/22 07:20:24;;;;;;;6.60;5.10;;;19.80;99.90;;;;;;5130029;27;20209;-76
2021/06/22 07:22:52;;;;;;;4.53;4.23;;;19.70;99.90;;;;;;5129537;27;20217;-77
2021/06/22 07:25:20;;;;;;;5.40;5.00;;;19.80;99.90;;;;;;5112676;27;20543;-77
2021/06/22 07:27:47;;;;;;;5.27;4.60;;;20.00;99.90;;;;;;5108971;28;20213;-76
2021/06/22 07:30:16;;;;;;;5.43;4.30;;;20.20;99.90;;;;;;5109017;28;20206;-76
2021/06/22 07:32:43;;;;;;;5.03;3.80;;;20.30;99.90;;;;;;5109003;28;20224;-76
2021/06/22 07:35:11;;;;;;;3.93;3.57;;;20.40;99.90;;;;;;5108827;28;20222;-76
2021/06/22 07:37:39;;;;;;;6.63;4.90;;;20.50;99.90;;;;;;5111929;27;20710;-76
2021/06/22 07:40:09;;;;;;;4.80;4.47;;;20.60;99.90;;;;;;5126591;27;20198;-76
2021/06/22 07:42:35;;;;;;;4.80;3.90;;;20.70;99.90;;;;;;5129734;27;20201;-76
2021/06/22 07:45:02;;;;;;;4.20;3.90;;;20.90;99.90;;;;;;5129800;27;20212;-77
2021/06/22 07:47:29;;;;;;;5.77;3.67;;;20.90;99.90;;;;;;5129640;27;20604;-76
2021/06/22 07:49:55;;;;;;;4.67;4.03;;;20.90;99.90;;;;;;5129875;27;20274;-76
2021/06/22 07:52:22;;;;;;;6.20;3.97;;;20.90;99.90;;;;;;5129244;27;20226;-76
2021/06/22 07:54:49;;;;;;;4.90;3.70;;;20.80;99.90;;;;;;5129506;27;20274;-76
2021/06/22 07:57:17;;;;;;;4.47;4.07;;;20.80;99.90;;;;;;5121654;27;20285;-76
2021/06/22 07:59:43;;;;;;;3.27;2.97;;;20.60;99.90;;;;;;5108746;28;20828;-76
2021/06/22 08:02:10;;;;;;;3.63;3.33;;;20.70;99.90;;;;;;5108603;28;20270;-76
2021/06/22 08:04:37;;;;;;;4.90;3.23;;;20.70;99.90;;;;;;5108716;28;20238;-76
2021/06/22 08:07:04;;;;;;;4.83;3.63;;;20.80;99.90;;;;;;5108176;28;20266;-76
2021/06/22 08:09:31;;;;;;;5.53;3.20;;;20.80;99.90;;;;;;5108312;28;20263;-76
2021/06/22 08:11:57;;;;;;;11.63;3.03;;;20.90;99.90;;;;;;5109494;28;20218;-77
2021/06/22 08:14:25;;;;;;;4.47;2.63;;;20.90;99.90;;;;;;5120526;28;20261;-75
2021/06/22 08:16:52;;;;;;;4.97;2.55;;;21.10;99.90;;;;;;5125617;27;20225;-76
2021/06/22 08:19:19;;;;;;;2.23;2.13;;;21.10;99.90;;;;;;5129185;27;20205;-77
2021/06/22 08:21:46;;;;;;;3.93;3.13;;;21.20;99.90;;;;;;5128548;27;20251;-75
2021/06/22 08:24:12;;;;;;;3.70;3.40;;;21.10;99.90;;;;;;5128594;28;20219;-75
2021/06/22 08:26:39;;;;;;;5.17;3.17;;;21.10;99.90;;;;;;5128671;28;20198;-76
2021/06/22 08:29:06;;;;;;;5.87;3.13;;;21.20;99.90;;;;;;5128541;28;20982;-76
2021/06/22 08:31:34;;;;;;;3.10;2.50;;;21.20;99.90;;;;;;5128625;28;20254;-76
2021/06/22 08:34:02;;;;;;;8.33;3.57;;;21.20;99.90;;;;;;5128813;28;20205;-76
2021/06/22 08:36:29;;;;;;;10.75;4.50;;;21.10;99.90;;;;;;5125605;28;20225;-76
2021/06/22 08:38:56;;;;;;;8.97;3.50;;;21.00;99.90;;;;;;5128780;28;20205;-76
2021/06/22 08:41:26;;;;;;;5.40;3.83;;;21.00;99.90;;;;;;5128556;28;20363;-76
2021/06/22 08:43:55;;;;;;;6.03;3.50;;;21.00;99.90;;;;;;5128172;28;20711;-76
2021/06/22 08:46:22;;;;;;;3.10;2.60;;;21.00;99.90;;;;;;5128532;28;20270;-76
2021/06/22 08:48:51;;;;;;;4.80;3.40;;;21.10;99.90;;;;;;5125603;28;20194;-76
2021/06/22 08:51:19;;;;;;;4.80;3.47;;;21.20;99.90;;;;;;5128315;28;20751;-77
2021/06/22 08:53:47;;;;;;;5.90;3.60;;;21.30;99.90;;;;;;5128328;28;20225;-76
2021/06/22 08:56:13;;;;;;;4.40;3.27;;;21.30;99.90;;;;;;5123896;28;20263;-76
2021/06/22 08:58:40;;;;;;;5.00;4.43;;;21.00;99.90;;;;;;5116471;28;20828;-77
2021/06/22 09:01:07;;;;;;;5.33;4.10;;;21.10;99.90;;;;;;5119808;28;20586;-76
2021/06/22 09:03:33;;;;;;;5.27;3.70;;;21.00;99.90;;;;;;5113617;28;20202;-75
2021/06/22 09:06:04;;;;;;;5.83;4.50;;;20.80;99.90;;;;;;5107866;28;20234;-74
2021/06/22 09:08:33;;;;;;;6.10;3.90;;;20.30;99.90;;;;;;5108913;28;20221;-74
2021/06/22 09:11:06;;;;;;;4.93;3.70;;;20.40;99.90;;;;;;5108334;28;20228;-74
2021/06/22 09:13:33;;;;;;;4.73;3.70;;;20.60;99.90;;;;;;5108546;28;20611;-74
2021/06/22 09:16:00;;;;;;;7.60;3.70;;;20.70;99.90;;;;;;5108177;28;20290;-74
2021/06/22 09:18:32;;;;;;;6.87;3.60;;;20.60;99.90;;;;;;5107783;28;20562;-74
2021/06/22 09:21:02;;;;;;;7.30;3.70;;;20.70;99.90;;;;;;5108083;28;20195;-74
2021/06/22 09:23:30;;;;;;;3.50;3.20;;;20.80;99.90;;;;;;5107601;28;20567;-75
2021/06/22 09:25:58;;;;;;;37.57;5.63;;;20.80;99.90;;;;;;5108159;28;20210;-75
2021/06/22 09:28:30;;;;;;;8.77;4.30;;;20.80;99.90;;;;;;5109317;28;20578;-75
2021/06/22 09:30:59;;;;;;;5.80;3.70;;;20.80;99.90;;;;;;5112133;28;20195;-75
2021/06/22 09:33:32;;;;;;;4.50;3.40;;;20.80;99.90;;;;;;5111468;28;20227;-75
2021/06/22 09:36:04;;;;;;;5.33;3.50;;;20.90;99.90;;;;;;5122159;27;20228;-75
2021/06/22 09:38:34;;;;;;;5.67;3.17;;;20.90;99.90;;;;;;5131931;27;20193;-75
2021/06/22 09:41:05;;;;;;;3.70;3.33;;;21.10;99.90;;;;;;5131869;27;20194;-75
2021/06/22 09:43:37;;;;;;;5.10;3.77;;;20.90;99.90;;;;;;5131992;27;20209;-75
2021/06/22 09:46:05;;;;;;;6.83;3.37;;;20.80;99.90;;;;;;5129552;27;20194;-75
2021/06/22 09:48:54;;;;;;;3.70;3.40;;;20.90;99.90;;;;;;5127478;27;20233;-75
2021/06/22 09:51:29;;;;;;;5.83;3.67;;;20.80;99.90;;;;;;5131655;27;20197;-74
2021/06/22 09:53:56;;;;;;;4.30;3.53;;;20.70;99.90;;;;;;5131630;27;21118;-75
2021/06/22 09:56:25;;;;;;;5.40;3.50;;;20.70;99.90;;;;;;5130833;27;20775;-75
2021/06/22 09:58:52;;;;;;;4.73;3.17;;;20.60;99.90;;;;;;5131838;27;20224;-74
2021/06/22 10:01:33;;;;;;;5.17;3.57;;;20.60;99.90;;;;;;5131046;27;20193;-74
2021/06/22 10:04:14;;;;;;;4.43;3.37;;;20.60;99.90;;;;;;5131705;27;20221;-75
2021/06/22 10:06:43;;;;;;;3.60;3.30;;;20.70;99.90;;;;;;5131745;27;20224;-75
2021/06/22 10:09:10;;;;;;;3.50;3.30;;;20.80;99.90;;;;;;5129483;27;20196;-75
2021/06/22 10:11:39;;;;;;;3.40;3.17;;;21.00;99.90;;;;;;5131565;27;20204;-75
2021/06/22 10:14:09;;;;;;;4.30;3.93;;;21.00;99.90;;;;;;5131216;27;20648;-75
2021/06/22 10:16:36;;;;;;;4.60;4.20;;;21.00;99.90;;;;;;5130730;27;20752;-75
2021/06/22 10:19:05;;;;;;;4.30;3.90;;;20.60;99.90;;;;;;5128562;27;20201;-76
2021/06/22 10:21:34;;;;;;;6.90;4.03;;;20.60;99.90;;;;;;5131218;27;20255;-75
2021/06/22 10:24:03;;;;;;;5.50;4.00;;;20.70;99.90;;;;;;5131208;27;20254;-75
2021/06/22 10:26:30;;;;;;;4.20;3.80;;;20.80;99.90;;;;;;5130843;27;20213;-75
2021/06/22 10:28:59;;;;;;;3.47;3.27;;;20.80;99.90;;;;;;5130833;27;20201;-75
2021/06/22 10:31:26;;;;;;;3.70;3.33;;;20.80;99.90;;;;;;5130804;27;20202;-75
2021/06/22 10:33:52;;;;;;;3.03;2.70;;;20.40;99.90;;;;;;5130761;27;20201;-75
2021/06/22 10:36:23;;;;;;;3.07;2.73;;;20.50;99.90;;;;;;5128963;27;20278;-75
2021/06/22 10:38:52;;;;;;;2.80;2.60;;;20.70;99.90;;;;;;5125622;27;20191;-77
2021/06/22 10:41:21;;;;;;;2.80;2.60;;;20.90;99.90;;;;;;5129706;27;20206;-76
2021/06/22 10:43:48;;;;;;;2.83;2.60;;;21.20;99.90;;;;;;5128529;27;20754;-78
2021/06/22 10:46:16;;;;;;;3.10;2.80;;;21.40;99.90;;;;;;5128737;27;20678;-77
2021/06/22 10:48:45;;;;;;;4.33;2.73;;;21.50;99.90;;;;;;5126576;27;20247;-78
2021/06/22 10:51:41;;;;;;;4.33;3.27;;;21.60;99.90;;;;;;5127655;27;20201;-78
2021/06/22 10:54:09;;;;;;;8.73;3.53;;;21.20;99.90;;;;;;5130025;27;20193;-78
2021/06/22 10:56:42;;;;;;;3.47;3.17;;;21.20;99.90;;;;;;5130454;27;20300;-78
2021/06/22 10:59:27;;;;;;;7.53;3.50;;;21.10;99.90;;;;;;5129964;27;20223;-78
2021/06/22 11:02:06;;;;;;;110.63;11.87;;;21.10;99.90;;;;;;5127929;27;20608;-78
2021/06/22 11:04:33;;;;;;;6.37;3.20;;;21.20;99.90;;;;;;5127306;27;20228;-77
2021/06/22 11:07:17;;;;;;;3.63;3.07;;;21.30;99.90;;;;;;5129963;27;20892;-77
2021/06/22 11:10:10;;;;;;;4.13;3.07;;;21.40;99.90;;;;;;5130122;27;20196;-78
2021/06/22 11:12:57;;;;;;;4.07;3.20;;;21.60;99.90;;;;;;5128041;27;20205;-78
2021/06/22 11:15:47;;;;;;;3.13;2.83;;;21.60;99.90;;;;;;5123094;27;20201;-78
2021/06/22 11:18:17;;;;;;;3.03;2.70;;;21.60;99.90;;;;;;5121457;27;20981;-78
2021/06/22 11:20:44;;;;;;;3.13;2.90;;;21.80;99.90;;;;;;5128001;27;20537;-78
2021/06/22 11:23:13;;;;;;;2.83;2.60;;;21.70;99.90;;;;;;5126647;27;20716;-78
2021/06/22 11:26:02;;;;;;;3.83;2.50;;;21.80;99.90;;;;;;5129595;27;20578;-78
2021/06/22 11:28:53;;;;;;;7.70;3.37;;;21.90;99.90;;;;;;5123362;27;20573;-78
2021/06/22 11:31:39;;;;;;;8.73;2.90;;;21.80;99.90;;;;;;5128011;27;20717;-78
2021/06/22 11:34:08;;;;;;;3.10;2.70;;;21.80;99.90;;;;;;5128889;27;20667;-78
2021/06/22 11:36:37;;;;;;;4.03;2.90;;;22.00;99.90;;;;;;5129666;27;20977;-78
2021/06/22 11:39:16;;;;;;;3.57;3.27;;;22.00;99.90;;;;;;5129836;27;20212;-78
2021/06/22 11:41:58;;;;;;;5.03;3.27;;;21.60;99.90;;;;;;5128122;27;20198;-78
2021/06/22 11:44:27;;;;;;;5.93;4.50;;;21.50;99.90;;;;;;5128717;27;20219;-78
2021/06/22 11:46:54;;;;;;;4.10;2.80;;;21.60;99.90;;;;;;5129415;27;20262;-78
2021/06/22 11:49:21;;;;;;;4.37;2.77;;;21.80;99.90;;;;;;5128499;27;20202;-78
2021/06/22 11:52:11;;;;;;;5.43;3.03;;;21.90;99.90;;;;;;5128505;27;20788;-78
2021/06/22 11:55:00;;;;;;;4.13;3.37;;;21.90;99.90;;;;;;5129794;27;20201;-78
2021/06/22 11:57:29;;;;;;;3.73;3.10;;;22.00;99.90;;;;;;5115448;27;20228;-78
2021/06/22 11:59:58;;;;;;;3.10;2.90;;;21.80;99.90;;;;;;5129126;27;20670;-78
2021/06/22 12:02:25;;;;;;;3.20;2.90;;;22.00;99.90;;;;;;5128645;27;20647;-78
2021/06/22 12:04:51;;;;;;;4.60;2.67;;;22.30;99.90;;;;;;5128921;27;20301;-78
2021/06/22 12:07:18;;;;;;;3.67;2.80;;;22.70;99.90;;;;;;5129496;27;20254;-77
2021/06/22 12:09:47;;;;;;;3.03;2.60;;;22.90;99.90;;;;;;5129394;27;20254;-77
2021/06/22 12:12:14;;;;;;;3.42;2.55;;;22.90;99.90;;;;;;5129335;27;20319;-78
2021/06/22 12:14:44;;;;;;;6.07;3.20;;;23.00;99.90;;;;;;5129412;27;20349;-77
2021/06/22 12:17:17;;;;;;;3.40;2.42;;;23.00;99.90;;;;;;5119481;27;20251;-78
2021/06/22 12:19:44;;;;;;;2.60;2.35;;;23.00;99.90;;;;;;5109108;28;20214;-77
2021/06/22 12:22:13;;;;;;;5.00;2.70;;;23.10;99.90;;;;;;5110650;28;20210;-77
2021/06/22 12:24:41;;;;;;;6.13;5.55;;;23.20;99.80;;;;;;5117601;28;20225;-77
2021/06/22 12:27:08;;;;;;;3.75;2.50;;;23.40;99.70;;;;;;5119178;28;20201;-77
2021/06/22 12:29:35;;;;;;;2.33;2.05;;;23.50;99.30;;;;;;5119243;28;20262;-78
2021/06/22 12:32:06;;;;;;;2.88;2.40;;;23.50;99.00;;;;;;5116989;27;20940;-78
2021/06/22 12:34:36;;;;;;;2.80;2.05;;;23.50;98.90;;;;;;5117269;27;20717;-78
2021/06/22 12:37:05;;;;;;;6.57;2.13;;;23.50;98.80;;;;;;5114777;28;20702;-78
2021/06/22 12:39:41;;;;;;;2.08;1.88;;;23.50;98.70;;;;;;5118158;27;20206;-78
2021/06/22 12:42:09;;;;;;;2.72;2.10;;;23.50;98.60;;;;;;5124106;28;20292;-78
2021/06/22 12:44:37;;;;;;;12.90;2.75;;;23.40;98.80;;;;;;5111810;28;20405;-78
2021/06/22 12:47:05;;;;;;;2.33;2.13;;;23.60;98.90;;;;;;5122883;28;20209;-79
2021/06/22 12:49:35;;;;;;;2.50;2.10;;;23.80;98.60;;;;;;5117836;28;20551;-77